Brookwood, Ohio
Current Conditions -  °F | °C
As of 4:36 PM on Wednesday 17 Dec 2014 (Local Time) from KI69 Reporting Station
Overcast Overcast  
Wind Chill: 26°   Ceiling: 2000
Heat Index: 32°   Visibility: 10mi
Dew Point: 27°   Wind: 6mph
Humidity: 80%   Direction: 280°W
Pressure: 30.2"   Gusts: NA
Location:  39.2053°N, 84.5807°W
Report Text: KI69 172136Z AUTO 28005KT 10SM OVC020 00/M03 A3020 RMK AO1
Loading
Personal Weather Stations






























Interactive Weather Map New forecast layout! Learn more

10-Day Weather Forecast

Advertisements
Track Severe Weather on mobile